Terminal Aerodrome Forecast
Issued by NWS San Angelo, TX

Home | Current Version | Previous Version | Text Only | Print | Product List | Glossary On
Versions: 1 2 3 4 5 6 7 8 9 10 11 12 13 14 15
000
FTUS44 KSJT 230900 AAA
TAFSJT
TAF AMD
KSJT 230931Z 2310/2406 13004KT P6SM SCT070 BKN250
     FM232000 12006KT P6SM VCTS SCT060CB BKN250
     FM232300 13006KT P6SM SCT060 BKN250=

USA.gov is the U.S. government's official web portal to all federal, state and local government web resources and services.